createdAt,value
2023-04-12T00:01:00.156Z,3.00
2023-04-12T00:03:28.455Z,2.75
2023-04-12T00:05:56.617Z,3.00
2023-04-12T00:08:33.104Z,4.00
2023-04-12T00:11:02.538Z,2.00
2023-04-12T00:13:30.786Z,3.20
2023-04-12T00:15:58.901Z,4.00
2023-04-12T00:18:27.500Z,3.00
2023-04-12T00:20:56.393Z,3.00
2023-04-12T00:23:24.460Z,5.00
2023-04-12T00:25:52.548Z,6.50
2023-04-12T00:28:21.954Z,5.00
2023-04-12T00:30:50.816Z,6.00
2023-04-12T00:33:18.924Z,2.00
2023-04-12T00:35:46.950Z,6.00
2023-04-12T00:38:17.384Z,5.00
2023-04-12T00:40:45.547Z,4.00
2023-04-12T00:43:15.692Z,4.20
2023-04-12T00:45:45.333Z,5.50
2023-04-12T00:48:13.554Z,5.00
2023-04-12T00:50:44.736Z,4.00
2023-04-12T00:53:13.556Z,2.00
2023-04-12T00:55:41.858Z,3.00
2023-04-12T00:58:09.928Z,3.00
2023-04-12T01:00:38.137Z,2.00
2023-04-12T01:03:08.644Z,2.50
2023-04-12T01:05:39.917Z,3.50
2023-04-12T01:08:12.084Z,2.00
2023-04-12T01:10:44.805Z,2.00
2023-04-12T01:13:18.307Z,1.60
2023-04-12T01:15:49.878Z,3.00
2023-04-12T01:18:22.224Z,2.00
2023-04-12T01:20:54.723Z,4.50
2023-04-12T01:23:35.772Z,3.00
2023-04-12T01:26:41.562Z,2.00
2023-04-12T01:29:12.209Z,3.00
2023-04-12T01:31:41.628Z,2.00
2023-04-12T01:34:11.344Z,1.60
2023-04-12T01:36:39.954Z,2.00
2023-04-12T01:39:08.224Z,2.00
2023-04-12T01:41:39.778Z,3.00
2023-04-12T01:44:07.820Z,5.00
2023-04-12T01:46:37.946Z,2.50
2023-04-12T01:49:05.966Z,5.00
2023-04-12T01:51:38.776Z,5.00
2023-04-12T01:54:11.615Z,5.00
2023-04-12T01:56:40.863Z,3.00
2023-04-12T01:59:09.196Z,5.00
2023-04-12T02:01:38.657Z,2.40
2023-04-12T02:04:07.501Z,3.00
2023-04-12T02:06:35.648Z,4.50
2023-04-12T02:09:06.004Z,3.00
2023-04-12T02:11:35.863Z,2.00
2023-04-12T02:14:03.909Z,3.00
2023-04-12T02:16:32.670Z,2.00
2023-04-12T02:19:04.029Z,5.00
2023-04-12T02:21:40.131Z,5.33
2023-04-12T02:24:08.238Z,3.00
2023-04-12T02:26:37.206Z,2.00
2023-04-12T02:29:07.800Z,2.00
2023-04-12T02:31:36.757Z,2.00
2023-04-12T02:34:06.466Z,3.00
2023-04-12T02:36:38.060Z,3.00
2023-04-12T02:39:07.877Z,3.00
2023-04-12T02:41:37.202Z,2.40
2023-04-12T02:44:10.242Z,2.20
2023-04-12T02:46:42.080Z,4.20
2023-04-12T02:49:11.667Z,3.00
2023-04-12T02:51:42.860Z,3.00
2023-04-12T02:54:12.343Z,3.00
2023-04-12T02:56:53.675Z,2.00
2023-04-12T02:59:41.959Z,3.00
2023-04-12T03:02:15.607Z,3.00
2023-04-12T03:04:47.003Z,3.00
2023-04-12T03:07:19.982Z,3.00
2023-04-12T03:09:51.757Z,5.40
2023-04-12T03:12:22.129Z,5.00
2023-04-12T03:14:59.801Z,5.00
2023-04-12T03:17:27.906Z,3.00
2023-04-12T03:20:06.489Z,5.00
2023-04-12T03:22:36.487Z,5.50
2023-04-12T03:25:08.784Z,5.00
2023-04-12T03:27:38.304Z,3.00
2023-04-12T03:30:07.975Z,5.00
2023-04-12T03:32:39.139Z,6.20
2023-04-12T03:35:11.023Z,4.00
2023-04-12T03:37:42.244Z,6.75
2023-04-12T03:40:12.863Z,4.60
2023-04-12T03:42:45.506Z,6.00
2023-04-12T03:45:15.686Z,5.00
2023-04-12T03:47:48.562Z,6.20
2023-04-12T03:50:19.861Z,5.50
2023-04-12T03:52:54.927Z,5.00
2023-04-12T03:55:27.805Z,5.50
2023-04-12T03:57:57.914Z,6.00
2023-04-12T04:00:31.753Z,6.00
2023-04-12T04:03:06.316Z,6.00
2023-04-12T04:05:43.178Z,6.20
2023-04-12T04:08:11.879Z,6.00
2023-04-12T04:10:51.440Z,8.60
2023-04-12T04:13:21.270Z,4.00
2023-04-12T04:15:53.056Z,2.50
2023-04-12T04:18:21.412Z,6.25
2023-04-12T04:20:50.808Z,4.20
2023-04-12T04:23:19.093Z,6.40
2023-04-12T04:25:47.463Z,3.00
2023-04-12T04:28:17.386Z,6.00
2023-04-12T04:30:46.240Z,6.00
2023-04-12T04:33:18.703Z,3.00
2023-04-12T04:35:47.050Z,7.00
2023-04-12T04:38:26.383Z,9.00
2023-04-12T04:41:02.460Z,13.50
2023-04-12T04:43:46.899Z,13.50
2023-04-12T04:46:17.404Z,17.50
2023-04-12T04:48:45.815Z,13.50
2023-04-12T04:51:14.954Z,7.80
2023-04-12T04:53:44.746Z,12.75
2023-04-12T04:56:15.091Z,13.00
2023-04-12T04:58:44.306Z,6.60
2023-04-12T05:01:13.616Z,9.00
2023-04-12T05:03:42.359Z,6.00
2023-04-12T05:06:10.862Z,9.00
2023-04-12T05:08:39.900Z,10.60
2023-04-12T05:11:09.878Z,9.00
2023-04-12T05:13:38.036Z,5.00
2023-04-12T05:16:08.078Z,6.75
2023-04-12T05:18:36.385Z,7.00
2023-04-12T05:21:05.451Z,10.00
2023-04-12T05:23:35.899Z,7.00
2023-04-12T05:26:04.005Z,6.00
2023-04-12T05:28:34.168Z,5.20
2023-04-12T05:31:02.341Z,6.00
2023-04-12T05:33:37.631Z,6.00
2023-04-12T05:36:06.484Z,7.00
2023-04-12T05:38:34.745Z,7.00
2023-04-12T05:41:06.918Z,6.75
2023-04-12T05:43:37.873Z,8.00
2023-04-12T05:46:07.995Z,7.00
2023-04-12T05:48:37.192Z,7.00
2023-04-12T05:51:06.086Z,10.00
2023-04-12T05:53:34.554Z,10.50
2023-04-12T05:56:05.840Z,10.60
2023-04-12T05:58:34.702Z,8.50
2023-04-12T06:01:04.190Z,8.00
2023-04-12T06:03:33.485Z,13.00
2023-04-12T06:06:10.022Z,11.80
2023-04-12T06:08:38.212Z,11.00
2023-04-12T06:11:08.112Z,11.80
2023-04-12T06:13:36.269Z,8.50
2023-04-12T06:16:06.352Z,9.00
2023-04-12T06:18:34.468Z,9.40
2023-04-12T06:21:02.507Z,8.20
2023-04-12T06:23:30.580Z,12.40
2023-04-12T06:25:58.725Z,8.60
2023-04-12T06:28:28.591Z,8.00
2023-04-12T06:30:57.255Z,13.40
2023-04-12T06:33:27.505Z,8.60
2023-04-12T06:35:56.041Z,20.00
2023-04-12T06:38:24.148Z,17.00
2023-04-12T06:40:52.173Z,10.75
2023-04-12T06:43:20.528Z,9.00
2023-04-12T06:45:49.761Z,6.00
2023-04-12T06:48:17.817Z,6.00
2023-04-12T06:50:47.263Z,5.00
2023-04-12T06:53:15.581Z,5.00
2023-04-12T06:55:43.751Z,7.00
2023-04-12T06:58:11.816Z,7.40
2023-04-12T07:00:39.964Z,9.60
2023-04-12T07:03:10.275Z,6.80
2023-04-12T07:05:39.281Z,12.00
2023-04-12T07:08:09.131Z,6.00
2023-04-12T07:10:38.156Z,8.00
2023-04-12T07:13:08.336Z,6.00
2023-04-12T07:15:36.394Z,10.40
2023-04-12T07:18:04.506Z,27.60
2023-04-12T07:20:32.560Z,9.00
2023-04-12T07:23:00.630Z,16.00
2023-04-12T07:25:30.015Z,15.00
2023-04-12T07:27:58.082Z,17.60
2023-04-12T07:30:26.347Z,24.25
2023-04-12T07:32:58.467Z,32.25
2023-04-12T07:35:34.034Z,54.75
2023-04-12T07:38:02.187Z,22.40
2023-04-12T07:40:31.672Z,6.00
2023-04-12T07:42:59.752Z,5.00
2023-04-12T07:45:27.768Z,4.40
2023-04-12T07:47:55.853Z,3.60
2023-04-12T07:50:23.950Z,3.00
2023-04-12T07:52:52.015Z,4.50
2023-04-12T07:55:20.226Z,3.00
2023-04-12T07:57:49.601Z,4.40
2023-04-12T08:00:18.528Z,5.00
2023-04-12T08:02:46.724Z,6.00
2023-04-12T08:05:14.835Z,5.00
2023-04-12T08:07:42.906Z,5.40
2023-04-12T08:10:11.279Z,5.40
2023-04-12T08:12:39.382Z,7.40
2023-04-12T08:15:10.039Z,7.40
2023-04-12T08:17:38.135Z,7.00
2023-04-12T08:20:07.360Z,6.40
2023-04-12T08:22:35.742Z,4.00
2023-04-12T08:25:03.767Z,10.00
2023-04-12T08:27:31.852Z,4.00
2023-04-12T08:29:59.883Z,4.00
2023-04-12T08:32:29.399Z,4.00
2023-04-12T08:34:57.455Z,4.80
2023-04-12T08:37:25.657Z,3.00
2023-04-12T08:39:53.673Z,3.00
2023-04-12T08:42:21.717Z,4.00
2023-04-12T08:44:51.312Z,3.00
2023-04-12T08:47:19.467Z,3.50
2023-04-12T08:49:48.876Z,3.20
2023-04-12T08:52:16.926Z,4.00
2023-04-12T08:54:44.937Z,4.00
2023-04-12T08:57:12.967Z,3.00
2023-04-12T08:59:41.168Z,2.00
2023-04-12T09:02:09.518Z,3.00
2023-04-12T09:04:49.960Z,1.80
2023-04-12T09:07:19.861Z,3.60
2023-04-12T09:09:48.405Z,2.00
2023-04-12T09:12:16.474Z,1.00
2023-04-12T09:14:45.038Z,1.00
2023-04-12T09:17:23.922Z,2.00
2023-04-12T09:19:53.628Z,3.00
2023-04-12T09:22:32.886Z,2.80
2023-04-12T09:25:01.060Z,2.00
2023-04-12T09:27:29.859Z,2.40
2023-04-12T09:30:08.293Z,2.00
2023-04-12T09:32:36.530Z,2.00
2023-04-12T09:35:06.721Z,1.60
2023-04-12T09:37:34.940Z,2.75
2023-04-12T09:40:04.548Z,2.20
2023-04-12T09:42:34.669Z,2.00
2023-04-12T09:45:19.818Z,2.00
2023-04-12T09:47:47.933Z,2.00
2023-04-12T09:50:22.987Z,2.00
2023-04-12T09:52:51.231Z,1.25
2023-04-12T09:55:19.285Z,2.80
2023-04-12T09:57:47.361Z,2.00
2023-04-12T10:00:18.433Z,3.00
2023-04-12T10:02:51.230Z,1.60
2023-04-12T10:05:23.088Z,1.50
2023-04-12T10:07:51.589Z,8.75
2023-04-12T10:10:20.400Z,6.20
2023-04-12T10:12:49.248Z,29.80
2023-04-12T10:15:18.625Z,4.00
2023-04-12T10:17:48.842Z,5.40
2023-04-12T10:20:17.839Z,4.75
2023-04-12T10:22:48.172Z,4.60
2023-04-12T10:25:17.323Z,2.75
2023-04-12T10:27:45.821Z,8.00
2023-04-12T10:30:27.215Z,14.40
2023-04-12T10:33:20.165Z,9.80
2023-04-12T10:35:53.134Z,8.00
2023-04-12T10:38:24.955Z,13.00
2023-04-12T10:41:12.343Z,8.00
2023-04-12T10:43:40.509Z,7.00
2023-04-12T10:46:08.761Z,9.00
2023-04-12T10:48:37.632Z,17.75
2023-04-12T10:51:17.811Z,7.00
2023-04-12T10:53:47.698Z,11.00
2023-04-12T10:56:41.567Z,12.00
2023-04-12T10:59:14.059Z,7.00
2023-04-12T11:02:10.758Z,5.00
2023-04-12T11:04:40.234Z,4.80
2023-04-12T11:07:12.998Z,2.60
2023-04-12T11:09:56.523Z,3.00
2023-04-12T11:12:29.095Z,2.00
2023-04-12T11:15:01.097Z,2.00
2023-04-12T11:17:37.919Z,3.20
2023-04-12T11:20:08.125Z,2.60
2023-04-12T11:22:36.278Z,3.20
2023-04-12T11:25:06.664Z,3.00
2023-04-12T11:27:34.696Z,2.00
2023-04-12T11:30:02.898Z,3.75
2023-04-12T11:32:34.750Z,2.00
2023-04-12T11:35:03.181Z,2.00
2023-04-12T11:37:35.744Z,3.00
2023-04-12T11:40:06.513Z,2.80
2023-04-12T11:42:34.538Z,3.00
2023-04-12T11:45:09.317Z,2.00
2023-04-12T11:47:44.147Z,3.00
2023-04-12T11:50:12.713Z,2.00
2023-04-12T11:52:41.373Z,2.00
2023-04-12T11:55:11.945Z,2.40
2023-04-12T11:57:40.173Z,2.20
2023-04-12T12:00:09.914Z,2.00
2023-04-12T12:02:52.341Z,2.60
2023-04-12T12:05:29.099Z,2.00
2023-04-12T12:07:58.894Z,2.60
2023-04-12T12:10:43.621Z,2.00
2023-04-12T12:13:15.025Z,1.00
2023-04-12T12:15:45.579Z,2.00
2023-04-12T12:18:13.706Z,2.75
2023-04-12T12:20:43.227Z,1.00
2023-04-12T12:23:11.303Z,2.00
2023-04-12T12:25:46.235Z,3.00
2023-04-12T12:28:14.451Z,1.00
2023-04-12T12:30:42.673Z,1.00
2023-04-12T12:33:10.941Z,2.60
2023-04-12T12:35:39.063Z,2.00
2023-04-12T12:38:08.657Z,1.00
2023-04-12T12:40:36.901Z,3.00
2023-04-12T12:43:06.951Z,2.00
2023-04-12T12:45:36.503Z,2.00
2023-04-12T12:48:05.291Z,2.00
2023-04-12T12:50:34.290Z,1.50
2023-04-12T12:53:02.663Z,12.50
2023-04-12T12:55:31.281Z,8.00
2023-04-12T13:00:32.424Z,5.00
2023-04-12T13:03:00.710Z,8.50
2023-04-12T13:05:29.015Z,5.25
2023-04-12T13:07:57.059Z,18.50
2023-04-12T13:10:26.644Z,5.00
2023-04-12T13:12:54.684Z,4.00
2023-04-12T13:15:24.519Z,4.00
2023-04-12T13:17:54.697Z,7.00
2023-04-12T13:20:22.985Z,4.75
2023-04-12T13:22:51.568Z,3.00
2023-04-12T13:25:20.532Z,4.00
2023-04-12T13:27:49.033Z,4.00
2023-04-12T13:30:17.202Z,3.25
2023-04-12T13:32:45.481Z,1.75
2023-04-12T13:35:14.974Z,3.00
2023-04-12T13:37:43.163Z,3.00
2023-04-12T13:40:11.844Z,2.00
2023-04-12T13:42:39.876Z,3.00
2023-04-12T13:45:11.317Z,2.00
2023-04-12T13:47:39.885Z,2.00
2023-04-12T13:50:09.104Z,3.00
2023-04-12T13:52:38.544Z,2.80
2023-04-12T13:55:08.556Z,1.50
2023-04-12T13:57:36.699Z,1.60
2023-04-12T14:00:05.320Z,3.00
2023-04-12T14:02:33.574Z,3.50
2023-04-12T14:05:01.786Z,5.00
2023-04-12T14:07:29.904Z,4.00
2023-04-12T14:09:59.348Z,6.75
2023-04-12T14:12:27.366Z,2.00
2023-04-12T14:14:55.439Z,4.00
2023-04-12T14:17:23.642Z,2.40
2023-04-12T14:19:52.159Z,2.00
2023-04-12T14:22:20.171Z,4.00
2023-04-12T14:24:48.216Z,3.00
2023-04-12T14:27:18.726Z,5.00
2023-04-12T14:29:46.836Z,11.00
2023-04-12T14:32:14.997Z,50.50
2023-04-12T14:34:44.464Z,4.50
2023-04-12T14:37:12.518Z,6.00
2023-04-12T14:39:40.625Z,6.80
2023-04-12T14:42:08.645Z,7.80
2023-04-12T14:44:38.040Z,3.25
2023-04-12T14:47:06.121Z,5.60
2023-04-12T14:49:34.176Z,5.00
2023-04-12T14:52:02.637Z,5.00
2023-04-12T14:54:30.684Z,2.75
2023-04-12T14:56:58.737Z,3.00
2023-04-12T14:59:27.436Z,2.00
2023-04-12T15:01:59.351Z,3.00
2023-04-12T15:04:27.707Z,3.60
2023-04-12T15:06:56.159Z,2.00
2023-04-12T15:09:24.336Z,2.20
2023-04-12T15:11:56.241Z,3.20
2023-04-12T15:14:24.277Z,2.00
2023-04-12T15:16:52.365Z,3.00
2023-04-12T15:19:23.284Z,1.40
2023-04-12T15:21:52.262Z,3.00
2023-04-12T15:24:20.929Z,3.00
2023-04-12T15:26:50.087Z,3.00
2023-04-12T15:29:18.507Z,2.00
2023-04-12T15:31:47.056Z,2.00
2023-04-12T15:34:15.186Z,3.00
2023-04-12T15:36:46.186Z,24.50
2023-04-12T15:39:15.009Z,16.00
2023-04-12T15:41:43.640Z,9.00
2023-04-12T15:44:13.392Z,7.60
2023-04-12T15:46:41.871Z,33.75
2023-04-12T15:49:10.367Z,44.60
2023-04-12T15:51:38.604Z,15.60
2023-04-12T15:54:08.335Z,13.60
2023-04-12T15:56:38.097Z,6.00
2023-04-12T15:59:06.229Z,7.60
2023-04-12T16:01:35.818Z,5.60
2023-04-12T16:04:05.155Z,4.00
2023-04-12T16:06:34.797Z,4.00
2023-04-12T16:09:04.297Z,4.60
2023-04-12T16:11:34.073Z,5.00
2023-04-12T16:14:02.198Z,5.00
2023-04-12T16:16:30.381Z,7.00
2023-04-12T16:19:00.493Z,8.00
2023-04-12T16:21:30.373Z,8.00
2023-04-12T16:23:58.633Z,10.00
2023-04-12T16:26:27.278Z,12.50
2023-04-12T16:28:56.938Z,8.60
2023-04-12T16:31:26.275Z,8.00
2023-04-12T16:33:54.595Z,20.00
2023-04-12T16:36:23.950Z,7.00
2023-04-12T16:38:54.577Z,8.00
2023-04-12T16:41:23.241Z,9.00
2023-04-12T16:43:53.841Z,7.00
2023-04-12T16:46:23.648Z,7.00
2023-04-12T16:48:51.758Z,6.00
2023-04-12T16:51:19.798Z,8.40
2023-04-12T16:53:47.815Z,9.00
2023-04-12T16:56:17.023Z,6.00
2023-04-12T16:58:47.622Z,8.00
2023-04-12T17:01:16.923Z,8.75
2023-04-12T17:03:47.392Z,15.00
2023-04-12T17:06:15.955Z,19.00
2023-04-12T17:08:44.976Z,27.00
2023-04-12T17:11:13.061Z,25.80
2023-04-12T17:13:42.262Z,32.00
2023-04-12T17:16:11.238Z,21.20
2023-04-12T17:18:40.304Z,19.00
2023-04-12T17:21:09.718Z,12.00
2023-04-12T17:23:37.788Z,11.80
2023-04-12T17:26:06.997Z,12.00
2023-04-12T17:28:36.260Z,11.00
2023-04-12T17:31:04.298Z,8.00
2023-04-12T17:33:32.331Z,8.00
2023-04-12T17:36:01.958Z,6.00
2023-04-12T17:38:31.342Z,8.50
2023-04-12T17:40:59.369Z,7.00
2023-04-12T17:43:27.397Z,9.00
2023-04-12T17:45:55.472Z,8.00
2023-04-12T17:48:23.540Z,11.00
2023-04-12T17:50:51.604Z,7.60
2023-04-12T17:53:19.627Z,18.60
2023-04-12T17:55:50.620Z,19.00
2023-04-12T17:58:19.060Z,45.00
2023-04-12T18:00:47.189Z,51.25
2023-04-12T18:03:15.805Z,35.40
2023-04-12T18:05:45.873Z,49.75
2023-04-12T18:08:15.160Z,36.50
2023-04-12T18:10:43.238Z,20.20
2023-04-12T18:13:12.822Z,39.00
2023-04-12T18:15:40.994Z,30.25
2023-04-12T18:18:09.097Z,45.50
2023-04-12T18:20:37.188Z,41.00
2023-04-12T18:23:05.243Z,35.75
2023-04-12T18:25:33.372Z,41.25
2023-04-12T18:28:02.108Z,28.50
2023-04-12T18:30:31.566Z,30.00
2023-04-12T18:33:02.085Z,18.00
2023-04-12T18:35:31.563Z,16.40
2023-04-12T18:37:59.581Z,13.00
2023-04-12T18:40:27.704Z,25.00
2023-04-12T18:42:55.805Z,17.00
2023-04-12T18:45:24.106Z,14.40
2023-04-12T18:47:53.987Z,13.00
2023-04-12T18:50:22.116Z,15.40
2023-04-12T18:52:50.260Z,14.40
2023-04-12T18:55:18.461Z,9.00
2023-04-12T18:57:48.837Z,10.00
2023-04-12T19:00:18.543Z,12.50
2023-04-12T19:02:46.664Z,14.00
2023-04-12T19:05:17.548Z,13.60
2023-04-12T19:07:45.806Z,10.00
2023-04-12T19:10:13.860Z,11.20
2023-04-12T19:12:41.898Z,12.00
2023-04-12T19:15:11.498Z,17.50
2023-04-12T19:17:40.194Z,12.60
2023-04-12T19:20:09.292Z,10.00
2023-04-12T19:22:38.695Z,10.50
2023-04-12T19:25:08.526Z,12.00
2023-04-12T19:27:36.832Z,10.50
2023-04-12T19:30:05.377Z,12.00
2023-04-12T19:32:34.533Z,10.00
2023-04-12T19:35:02.632Z,9.00
2023-04-12T19:37:34.068Z,9.75
2023-04-12T19:40:04.000Z,8.00
2023-04-12T19:42:32.121Z,7.00
2023-04-12T19:45:00.663Z,10.20
2023-04-12T19:47:29.121Z,8.20
2023-04-12T19:49:58.213Z,10.00
2023-04-12T19:52:28.371Z,8.40
2023-04-12T19:54:57.208Z,12.00
2023-04-12T19:57:27.648Z,8.00
2023-04-12T19:59:55.931Z,8.50
2023-04-12T20:02:24.664Z,7.00
2023-04-12T20:04:53.426Z,9.00
2023-04-12T20:07:21.513Z,11.00
2023-04-12T20:09:49.855Z,9.20
2023-04-12T20:12:19.046Z,6.20
2023-04-12T20:14:48.445Z,9.00
2023-04-12T20:17:16.495Z,8.25
2023-04-12T20:19:44.531Z,9.60
2023-04-12T20:22:12.604Z,8.75
2023-04-12T20:24:40.639Z,7.00
2023-04-12T20:27:09.517Z,7.00
2023-04-12T20:29:37.622Z,7.00
2023-04-12T20:32:07.163Z,6.20
2023-04-12T20:34:35.195Z,6.00
2023-04-12T20:37:03.236Z,6.40
2023-04-12T20:39:31.675Z,4.00
2023-04-12T20:42:01.249Z,7.00
2023-04-12T20:44:29.374Z,5.00
2023-04-12T20:46:58.618Z,7.00
2023-04-12T20:49:28.242Z,6.00
2023-04-12T20:51:57.222Z,7.00
2023-04-12T20:54:25.652Z,6.00
2023-04-12T20:56:54.322Z,6.00
2023-04-12T20:59:23.024Z,7.33
2023-04-12T21:01:51.234Z,7.00
2023-04-12T21:04:20.136Z,6.00
2023-04-12T21:06:50.809Z,6.00
2023-04-12T21:09:18.907Z,4.60
2023-04-12T21:11:46.931Z,6.50
2023-04-12T21:14:15.329Z,12.00
2023-04-12T21:16:43.867Z,9.00
2023-04-12T21:19:12.664Z,16.40
2023-04-12T21:21:41.311Z,21.00
2023-04-12T21:24:10.756Z,28.00
2023-04-12T21:26:39.310Z,25.75
2023-04-12T21:29:07.380Z,19.00
2023-04-12T21:31:37.443Z,15.00
2023-04-12T21:34:07.258Z,15.40
2023-04-12T21:36:35.279Z,23.50
2023-04-12T21:39:03.833Z,16.40
2023-04-12T21:41:33.204Z,7.80
2023-04-12T21:44:01.226Z,12.00
2023-04-12T21:46:29.324Z,13.00
2023-04-12T21:48:57.537Z,11.00
2023-04-12T21:51:26.488Z,7.00
2023-04-12T21:53:54.524Z,6.00
2023-04-12T21:56:22.539Z,6.40
2023-04-12T21:58:51.935Z,4.00
2023-04-12T22:01:19.982Z,22.00
2023-04-12T22:03:48.352Z,17.25
2023-04-12T22:06:16.951Z,18.25
2023-04-12T22:08:45.834Z,13.50
2023-04-12T22:11:13.854Z,16.00
2023-04-12T22:13:42.456Z,24.00
2023-04-12T22:16:13.557Z,15.25
2023-04-12T22:18:42.579Z,9.80
2023-04-12T22:21:12.148Z,8.40
2023-04-12T22:23:40.697Z,7.00
2023-04-12T22:26:09.121Z,7.00
2023-04-12T22:28:37.917Z,6.50
2023-04-12T22:31:06.422Z,6.60
2023-04-12T22:33:37.009Z,5.00
2023-04-12T22:36:06.133Z,6.00
2023-04-12T22:38:35.749Z,6.00
2023-04-12T22:41:03.830Z,5.60
2023-04-12T22:43:34.051Z,7.00
2023-04-12T22:46:05.155Z,7.00
2023-04-12T22:48:33.293Z,5.00
2023-04-12T22:51:02.672Z,5.00
2023-04-12T22:53:33.254Z,5.00
2023-04-12T22:56:01.274Z,5.00
2023-04-12T22:58:29.317Z,5.00
2023-04-12T23:00:57.346Z,4.60
2023-04-12T23:03:25.560Z,4.50
2023-04-12T23:05:53.660Z,5.00
2023-04-12T23:08:23.198Z,5.00
2023-04-12T23:10:52.348Z,5.75
2023-04-12T23:13:20.428Z,7.00
2023-04-12T23:15:48.480Z,5.00
2023-04-12T23:18:16.571Z,6.00
2023-04-12T23:20:44.903Z,6.00
2023-04-12T23:23:13.592Z,6.00
2023-04-12T23:25:43.000Z,7.00
2023-04-12T23:28:14.207Z,6.80
2023-04-12T23:30:44.085Z,5.60
2023-04-12T23:33:12.707Z,8.00
2023-04-12T23:35:41.677Z,7.00
2023-04-12T23:38:09.978Z,13.00
2023-04-12T23:40:38.117Z,9.00
2023-04-12T23:43:08.632Z,10.20
2023-04-12T23:45:36.843Z,7.80
2023-04-12T23:48:05.898Z,9.00
2023-04-12T23:50:33.950Z,16.00
2023-04-12T23:53:02.261Z,9.50
2023-04-12T23:55:30.414Z,9.40
2023-04-12T23:57:58.488Z,11.00
